createdAt,value
2017-10-14T00:00:37.091Z,22.63
2017-10-14T00:01:17.555Z,22.61
2017-10-14T00:01:57.979Z,22.56
2017-10-14T00:02:38.424Z,22.58
2017-10-14T00:03:18.894Z,22.63
2017-10-14T00:03:59.321Z,22.67
2017-10-14T00:04:39.775Z,22.59
2017-10-14T00:05:20.219Z,22.65
2017-10-14T00:06:00.675Z,22.65
2017-10-14T00:06:41.120Z,22.59
2017-10-14T00:07:21.576Z,22.67
2017-10-14T00:08:02.034Z,22.67
2017-10-14T00:08:42.489Z,22.62
2017-10-14T00:09:22.960Z,22.62
2017-10-14T00:10:03.380Z,22.63
2017-10-14T00:10:43.827Z,22.61
2017-10-14T00:11:24.288Z,22.59
2017-10-14T00:12:04.728Z,22.61
2017-10-14T00:12:45.192Z,22.63
2017-10-14T00:13:25.616Z,22.62
2017-10-14T00:14:06.062Z,22.65
2017-10-14T00:14:46.501Z,22.67
2017-10-14T00:15:26.934Z,22.61
2017-10-14T00:16:07.394Z,22.58
2017-10-14T00:16:47.848Z,22.59
2017-10-14T00:17:28.292Z,22.62
2017-10-14T00:18:08.749Z,22.61
2017-10-14T00:18:49.202Z,22.55
2017-10-14T00:19:29.656Z,22.51
2017-10-14T00:20:10.099Z,22.67
2017-10-14T00:20:50.556Z,22.56
2017-10-14T00:21:31.004Z,22.61
2017-10-14T00:22:11.457Z,22.62
2017-10-14T00:22:51.922Z,22.62
2017-10-14T00:23:32.383Z,22.53
2017-10-14T00:24:12.784Z,22.71
2017-10-14T00:24:53.252Z,22.59
2017-10-14T00:25:33.610Z,22.51
2017-10-14T00:26:14.110Z,22.62
2017-10-14T00:28:11.737Z,22.56
2017-10-14T00:28:52.181Z,22.46
2017-10-14T00:29:32.652Z,22.53
2017-10-14T00:30:13.085Z,22.55
2017-10-14T00:30:53.531Z,22.53
2017-10-14T00:31:34.003Z,22.61
2017-10-14T00:32:14.463Z,22.53
2017-10-14T00:32:54.919Z,22.61
2017-10-14T00:33:35.663Z,22.46
2017-10-14T00:34:16.050Z,22.43
2017-10-14T00:34:56.461Z,22.49
2017-10-14T00:35:36.873Z,22.51
2017-10-14T00:36:17.327Z,22.52
2017-10-14T00:36:57.773Z,22.53
2017-10-14T00:37:38.233Z,22.44
2017-10-14T00:38:18.696Z,22.51
2017-10-14T00:38:59.077Z,22.44
2017-10-14T00:39:39.502Z,22.53
2017-10-14T00:40:19.897Z,22.44
2017-10-14T00:41:00.318Z,22.55
2017-10-14T00:41:40.800Z,22.51
2017-10-14T00:43:39.440Z,22.46
2017-10-14T00:44:19.880Z,22.49
2017-10-14T00:45:00.369Z,22.52
2017-10-14T00:45:40.811Z,22.49
2017-10-14T00:46:21.257Z,22.52
2017-10-14T00:47:01.712Z,22.52
2017-10-14T00:47:42.156Z,22.43
2017-10-14T00:48:22.609Z,22.53
2017-10-14T00:49:03.066Z,22.49
2017-10-14T00:49:43.507Z,22.55
2017-10-14T00:50:23.955Z,22.55
2017-10-14T00:51:04.410Z,22.65
2017-10-14T00:51:44.854Z,22.62
2017-10-14T00:52:25.312Z,22.62
2017-10-14T00:53:05.783Z,22.63
2017-10-14T00:53:46.226Z,22.65
2017-10-14T00:54:26.669Z,22.67
2017-10-14T00:55:07.128Z,22.59
2017-10-14T00:55:47.563Z,22.59
2017-10-14T00:56:28.125Z,22.65
2017-10-14T00:57:08.638Z,22.59
2017-10-14T00:57:49.085Z,22.58
2017-10-14T00:58:29.548Z,22.67
2017-10-14T00:59:09.998Z,22.65
2017-10-14T00:59:50.504Z,22.63
2017-10-14T01:00:30.938Z,22.68
2017-10-14T01:01:11.371Z,22.62
2017-10-14T01:01:51.838Z,22.55
2017-10-14T01:02:32.279Z,22.63
2017-10-14T01:03:12.969Z,22.58
2017-10-14T01:03:53.425Z,22.61
2017-10-14T01:04:33.875Z,22.59
2017-10-14T01:05:14.321Z,22.65
2017-10-14T01:05:54.925Z,22.68
2017-10-14T01:06:35.238Z,22.62
2017-10-14T01:07:15.695Z,22.67
2017-10-14T01:07:56.172Z,22.62
2017-10-14T01:08:36.633Z,22.56
2017-10-14T01:09:17.081Z,22.58
2017-10-14T01:09:57.545Z,22.67
2017-10-14T01:10:38.008Z,22.59
2017-10-14T01:11:18.486Z,22.58
2017-10-14T01:11:58.939Z,22.62
2017-10-14T01:12:39.393Z,22.61
2017-10-14T01:13:19.830Z,22.52
2017-10-14T01:14:00.286Z,22.53
2017-10-14T01:14:40.738Z,22.53
2017-10-14T01:15:21.185Z,22.52
2017-10-14T01:16:01.629Z,22.52
2017-10-14T01:16:42.082Z,22.58
2017-10-14T01:17:22.536Z,22.58
2017-10-14T01:18:02.983Z,22.46
2017-10-14T01:18:43.446Z,22.47
2017-10-14T01:19:23.885Z,22.52
2017-10-14T01:20:04.334Z,22.55
2017-10-14T01:20:44.808Z,22.53
2017-10-14T01:21:25.264Z,22.47
2017-10-14T01:22:05.899Z,22.46
2017-10-14T01:22:46.478Z,22.52
2017-10-14T01:23:27.059Z,22.44
2017-10-14T01:24:07.868Z,22.52
2017-10-14T01:24:48.065Z,22.43
2017-10-14T01:25:28.518Z,22.51
2017-10-14T01:26:08.980Z,22.59
2017-10-14T01:26:49.437Z,22.55
2017-10-14T01:27:29.890Z,22.56
2017-10-14T01:28:10.413Z,22.52
2017-10-14T01:28:50.981Z,22.56
2017-10-14T01:29:31.735Z,22.51
2017-10-14T01:30:12.185Z,22.53
2017-10-14T01:30:52.633Z,22.47
2017-10-14T01:31:33.091Z,22.51
2017-10-14T01:32:13.532Z,22.53
2017-10-14T01:32:54.306Z,22.52
2017-10-14T01:33:34.761Z,22.49
2017-10-14T01:34:15.215Z,22.51
2017-10-14T01:34:55.671Z,22.51
2017-10-14T01:35:36.167Z,22.56
2017-10-14T01:36:16.625Z,22.49
2017-10-14T01:36:57.078Z,22.56
2017-10-14T01:37:37.526Z,22.55
2017-10-14T01:38:17.962Z,22.52
2017-10-14T01:38:58.422Z,22.46
2017-10-14T01:39:38.869Z,22.51
2017-10-14T01:40:19.313Z,22.49
2017-10-14T01:40:59.764Z,22.49
2017-10-14T01:41:40.232Z,22.53
2017-10-14T01:42:20.689Z,22.47
2017-10-14T01:43:01.148Z,22.4
2017-10-14T01:43:41.640Z,22.51
2017-10-14T01:44:22.074Z,22.46
2017-10-14T01:45:02.522Z,22.55
2017-10-14T01:45:42.974Z,22.53
2017-10-14T01:46:23.433Z,22.49
2017-10-14T01:47:03.869Z,22.53
2017-10-14T01:47:44.317Z,22.4
2017-10-14T01:48:24.771Z,22.47
2017-10-14T01:49:05.222Z,22.43
2017-10-14T01:49:45.677Z,22.55
2017-10-14T01:50:26.131Z,22.44
2017-10-14T01:52:18.728Z,22.47
2017-10-14T01:52:59.190Z,22.43
2017-10-14T01:53:39.633Z,22.51
2017-10-14T01:54:20.093Z,22.43
2017-10-14T01:55:00.521Z,22.41
2017-10-14T01:55:40.972Z,22.44
2017-10-14T01:56:21.427Z,22.38
2017-10-14T01:57:01.866Z,22.4
2017-10-14T01:57:42.312Z,22.41
2017-10-14T01:58:22.771Z,22.43
2017-10-14T01:59:03.225Z,22.52
2017-10-14T01:59:43.677Z,22.41
2017-10-14T02:00:24.134Z,22.41
2017-10-14T02:01:04.576Z,22.41
2017-10-14T02:01:45.032Z,22.38
2017-10-14T02:02:25.472Z,22.4
2017-10-14T02:03:05.923Z,22.43
2017-10-14T02:03:46.375Z,22.44
2017-10-14T02:04:26.816Z,22.38
2017-10-14T02:05:07.267Z,22.43
2017-10-14T02:05:47.717Z,22.41
2017-10-14T02:06:28.174Z,22.4
2017-10-14T02:07:08.631Z,22.4
2017-10-14T02:07:49.082Z,22.38
2017-10-14T02:08:29.530Z,22.4
2017-10-14T02:09:09.996Z,22.43
2017-10-14T02:09:50.458Z,22.44
2017-10-14T02:10:30.916Z,22.43
2017-10-14T02:11:11.381Z,22.41
2017-10-14T02:11:51.831Z,22.4
2017-10-14T02:12:32.291Z,22.38
2017-10-14T02:13:12.741Z,22.37
2017-10-14T02:13:53.203Z,22.41
2017-10-14T02:14:33.653Z,22.44
2017-10-14T02:15:14.110Z,22.38
2017-10-14T02:15:54.542Z,22.43
2017-10-14T02:16:34.990Z,22.41
2017-10-14T02:17:15.437Z,22.38
2017-10-14T02:17:55.902Z,22.41
2017-10-14T02:18:36.349Z,22.47
2017-10-14T02:19:16.805Z,22.52
2017-10-14T02:19:57.274Z,22.46
2017-10-14T02:20:37.714Z,22.52
2017-10-14T02:21:18.170Z,22.53
2017-10-14T02:21:58.626Z,22.43
2017-10-14T02:22:39.092Z,22.49
2017-10-14T02:23:19.547Z,22.44
2017-10-14T02:24:00.000Z,22.52
2017-10-14T02:24:40.466Z,22.52
2017-10-14T02:25:20.920Z,22.53
2017-10-14T02:26:01.368Z,22.52
2017-10-14T02:26:41.822Z,22.55
2017-10-14T02:27:22.267Z,22.4
2017-10-14T02:28:02.718Z,22.46
2017-10-14T02:28:43.166Z,22.4
2017-10-14T02:29:23.617Z,22.51
2017-10-14T02:30:04.074Z,22.51
2017-10-14T02:31:56.667Z,22.51
2017-10-14T02:32:37.109Z,22.37
2017-10-14T02:33:17.562Z,22.53
2017-10-14T02:33:58.017Z,22.51
2017-10-14T02:34:38.467Z,22.53
2017-10-14T02:35:18.919Z,22.43
2017-10-14T02:35:59.372Z,22.51
2017-10-14T02:36:39.826Z,22.51
2017-10-14T02:37:20.281Z,22.51
2017-10-14T02:38:00.736Z,22.49
2017-10-14T02:38:41.185Z,22.43
2017-10-14T02:39:21.637Z,22.44
2017-10-14T02:40:02.078Z,22.51
2017-10-14T02:40:42.510Z,22.51
2017-10-14T02:41:22.959Z,22.47
2017-10-14T02:42:03.422Z,22.56
2017-10-14T02:42:43.864Z,22.47
2017-10-14T02:43:24.315Z,22.55
2017-10-14T02:44:04.775Z,22.52
2017-10-14T02:44:45.220Z,22.47
2017-10-14T02:45:25.674Z,22.55
2017-10-14T02:46:06.128Z,22.52
2017-10-14T02:46:46.574Z,22.52
2017-10-14T02:47:27.024Z,22.44
2017-10-14T02:48:07.471Z,22.51
2017-10-14T02:48:47.923Z,22.55
2017-10-14T02:49:28.365Z,22.46
2017-10-14T02:50:08.797Z,22.46
2017-10-14T02:50:49.262Z,22.56
2017-10-14T02:51:29.718Z,22.51
2017-10-14T02:52:10.172Z,22.46
2017-10-14T02:52:50.631Z,22.49
2017-10-14T02:53:31.076Z,22.47
2017-10-14T02:54:11.533Z,22.47
2017-10-14T02:54:51.985Z,22.49
2017-10-14T02:55:32.442Z,22.53
2017-10-14T02:56:12.898Z,22.55
2017-10-14T02:56:53.346Z,22.51
2017-10-14T02:57:33.807Z,22.53
2017-10-14T02:58:14.266Z,22.51
2017-10-14T02:58:54.722Z,22.49
2017-10-14T02:59:35.173Z,22.51
2017-10-14T03:00:15.628Z,22.51
2017-10-14T03:00:56.070Z,22.51
2017-10-14T03:01:36.523Z,22.46
2017-10-14T03:02:16.977Z,22.55
2017-10-14T03:02:57.423Z,22.52
2017-10-14T03:03:37.895Z,22.47
2017-10-14T03:04:18.334Z,22.56
2017-10-14T03:04:58.811Z,22.52
2017-10-14T03:05:39.266Z,22.58
2017-10-14T03:06:19.748Z,22.52
2017-10-14T03:07:00.184Z,22.4
2017-10-14T03:07:40.637Z,22.38
2017-10-14T03:08:21.089Z,22.4
2017-10-14T03:09:01.537Z,22.43
2017-10-14T03:09:41.997Z,22.43
2017-10-14T03:10:22.457Z,22.38
2017-10-14T03:11:02.912Z,22.41
2017-10-14T03:11:43.370Z,22.51
2017-10-14T03:12:23.809Z,22.4
2017-10-14T03:13:04.252Z,22.52
2017-10-14T03:13:44.702Z,22.55
2017-10-14T03:14:25.151Z,22.55
2017-10-14T03:15:05.626Z,22.53
2017-10-14T03:15:46.092Z,22.52
2017-10-14T03:16:26.545Z,22.56
2017-10-14T03:17:06.986Z,22.52
2017-10-14T03:17:47.441Z,22.55
2017-10-14T03:18:27.901Z,22.56
2017-10-14T03:19:08.361Z,22.47
2017-10-14T03:19:48.814Z,22.52
2017-10-14T03:20:29.261Z,22.52
2017-10-14T03:21:09.722Z,22.56
2017-10-14T03:21:50.162Z,22.51
2017-10-14T03:22:30.610Z,22.53
2017-10-14T03:23:11.057Z,22.46
2017-10-14T03:23:51.514Z,22.53
2017-10-14T03:24:31.964Z,22.49
2017-10-14T03:25:12.415Z,22.51
2017-10-14T03:25:52.861Z,22.41
2017-10-14T03:26:33.301Z,22.56
2017-10-14T03:27:13.746Z,22.49
2017-10-14T03:27:54.214Z,22.44
2017-10-14T03:28:34.661Z,22.52
2017-10-14T03:29:15.112Z,22.52
2017-10-14T03:29:55.574Z,22.49
2017-10-14T03:30:36.029Z,22.44
2017-10-14T03:31:16.455Z,22.58
2017-10-14T03:31:56.917Z,22.4
2017-10-14T03:32:37.358Z,22.53
2017-10-14T03:33:17.798Z,22.52
2017-10-14T03:33:58.239Z,22.46
2017-10-14T03:34:38.694Z,22.4
2017-10-14T03:35:19.151Z,22.4
2017-10-14T03:35:59.610Z,22.41
2017-10-14T03:36:40.068Z,22.41
2017-10-14T03:37:20.528Z,22.4
2017-10-14T03:38:00.987Z,22.4
2017-10-14T03:38:41.450Z,22.38
2017-10-14T03:39:21.908Z,22.52
2017-10-14T03:40:02.364Z,22.43
2017-10-14T03:40:42.810Z,22.41
2017-10-14T03:41:23.267Z,22.51
2017-10-14T03:42:03.716Z,22.43
2017-10-14T03:42:44.153Z,22.47
2017-10-14T03:43:24.616Z,22.43
2017-10-14T03:44:05.049Z,22.38
2017-10-14T03:44:45.501Z,22.43
2017-10-14T03:45:25.962Z,22.38
2017-10-14T03:46:06.417Z,22.46
2017-10-14T03:46:46.869Z,22.44
2017-10-14T03:47:27.326Z,22.38
2017-10-14T03:48:07.784Z,22.43
2017-10-14T03:48:48.286Z,22.47
2017-10-14T03:49:28.678Z,22.41
2017-10-14T03:50:09.128Z,22.38
2017-10-14T03:50:49.606Z,22.44
2017-10-14T03:51:30.075Z,22.44
2017-10-14T03:52:10.511Z,22.41
2017-10-14T03:52:50.998Z,22.41
2017-10-14T03:53:31.419Z,22.43
2017-10-14T03:55:44.132Z,22.38
2017-10-14T03:57:56.885Z,22.43
2017-10-14T03:58:37.436Z,22.38
2017-10-14T03:59:18.230Z,22.34
2017-10-14T03:59:58.698Z,22.34
2017-10-14T04:00:39.499Z,22.37
2017-10-14T04:01:19.812Z,22.36
2017-10-14T04:02:00.230Z,22.36
2017-10-14T04:02:40.665Z,22.36
2017-10-14T04:03:21.249Z,22.43
2017-10-14T04:04:01.627Z,22.38
2017-10-14T04:04:42.015Z,22.43
2017-10-14T04:05:22.487Z,22.44
2017-10-14T04:06:02.910Z,22.41
2017-10-14T04:06:43.332Z,22.44
2017-10-14T04:07:23.800Z,22.43
2017-10-14T04:08:04.206Z,22.41
2017-10-14T04:08:44.647Z,22.47
2017-10-14T04:09:25.041Z,22.46
2017-10-14T04:10:05.470Z,22.44
2017-10-14T04:10:45.874Z,22.53
2017-10-14T04:11:26.432Z,22.52
2017-10-14T04:12:06.874Z,22.4
2017-10-14T04:12:47.315Z,22.53
2017-10-14T04:13:27.771Z,22.59
2017-10-14T04:14:08.225Z,22.53
2017-10-14T04:14:48.734Z,22.49
2017-10-14T04:15:29.171Z,22.55
2017-10-14T04:16:09.677Z,22.52
2017-10-14T04:16:50.168Z,22.52
2017-10-14T04:17:30.609Z,22.46
2017-10-14T04:18:11.077Z,22.58
2017-10-14T04:18:51.511Z,22.47
2017-10-14T04:19:31.962Z,22.53
2017-10-14T04:20:12.424Z,22.47
2017-10-14T04:20:52.910Z,22.55
2017-10-14T04:21:33.322Z,22.47
2017-10-14T04:22:13.769Z,22.43
2017-10-14T04:22:54.275Z,22.56
2017-10-14T04:23:34.894Z,22.52
2017-10-14T04:24:15.260Z,22.52
2017-10-14T04:24:55.789Z,22.53
2017-10-14T04:25:36.278Z,22.44
2017-10-14T04:26:17.448Z,22.58
2017-10-14T04:26:57.957Z,22.61
2017-10-14T04:27:38.436Z,22.47
2017-10-14T04:28:18.851Z,22.51
2017-10-14T04:28:59.442Z,22.51
2017-10-14T04:29:39.762Z,22.58
2017-10-14T04:30:20.290Z,22.58
2017-10-14T04:31:00.758Z,22.56
2017-10-14T04:31:41.180Z,22.62
2017-10-14T04:32:21.628Z,22.62
2017-10-14T04:33:02.019Z,22.56
2017-10-14T04:33:42.488Z,22.61
2017-10-14T04:34:22.897Z,22.56
2017-10-14T04:35:03.364Z,22.61
2017-10-14T04:35:43.748Z,22.61
2017-10-14T04:36:24.196Z,22.65
2017-10-14T04:37:04.626Z,22.65
2017-10-14T04:37:45.052Z,22.62
2017-10-14T04:38:25.394Z,22.59
2017-10-14T04:39:05.851Z,22.56
2017-10-14T04:39:46.265Z,22.7
2017-10-14T04:40:26.695Z,22.61
2017-10-14T04:41:07.113Z,22.62
2017-10-14T04:41:47.492Z,22.7
2017-10-14T04:42:27.987Z,22.61
2017-10-14T04:43:08.385Z,22.63
2017-10-14T04:43:48.797Z,22.59
2017-10-14T04:44:29.223Z,22.67
2017-10-14T04:45:09.629Z,22.68
2017-10-14T04:45:50.040Z,22.61
2017-10-14T04:46:30.466Z,22.65
2017-10-14T04:47:10.852Z,22.59
2017-10-14T04:47:51.295Z,22.68
2017-10-14T04:48:31.689Z,22.58
2017-10-14T04:49:12.126Z,22.65
2017-10-14T04:49:52.533Z,22.58
2017-10-14T04:50:32.944Z,22.62
2017-10-14T04:51:13.380Z,22.63
2017-10-14T04:51:53.782Z,22.65
2017-10-14T04:52:34.206Z,22.65
2017-10-14T04:53:14.646Z,22.58
2017-10-14T04:53:55.043Z,22.62
2017-10-14T04:54:35.502Z,22.59
2017-10-14T04:55:15.962Z,22.61
2017-10-14T04:55:56.407Z,22.68
2017-10-14T04:56:36.872Z,22.62
2017-10-14T04:57:17.315Z,22.62
2017-10-14T04:57:57.768Z,22.59
2017-10-14T04:58:38.227Z,22.63
2017-10-14T04:59:18.678Z,22.62
2017-10-14T04:59:59.133Z,22.63
2017-10-14T05:00:39.582Z,22.61
2017-10-14T05:01:20.047Z,22.59
2017-10-14T05:02:00.505Z,22.62
2017-10-14T05:02:40.974Z,22.68
2017-10-14T05:03:21.416Z,22.68
2017-10-14T05:04:02.301Z,22.63
2017-10-14T05:04:42.742Z,22.59
2017-10-14T05:05:23.197Z,22.58
2017-10-14T05:06:03.654Z,22.58
2017-10-14T05:06:44.113Z,22.7
2017-10-14T05:07:24.568Z,22.62
2017-10-14T05:08:05.011Z,22.67
2017-10-14T05:08:45.491Z,22.67
2017-10-14T05:09:25.951Z,22.62
2017-10-14T05:10:06.410Z,22.53
2017-10-14T05:10:46.857Z,22.7
2017-10-14T05:11:27.299Z,22.62
2017-10-14T05:12:07.748Z,22.63
2017-10-14T05:12:48.223Z,22.59
2017-10-14T05:13:28.668Z,22.65
2017-10-14T05:14:09.119Z,22.67
2017-10-14T05:14:49.560Z,22.61
2017-10-14T05:15:30.021Z,22.68
2017-10-14T05:16:10.467Z,22.63
2017-10-14T05:16:50.918Z,22.58
2017-10-14T05:17:31.373Z,22.7
2017-10-14T05:18:11.829Z,22.63
2017-10-14T05:18:52.278Z,22.65
2017-10-14T05:19:32.727Z,22.65
2017-10-14T05:20:13.183Z,22.65
2017-10-14T05:20:53.636Z,22.61
2017-10-14T05:21:34.090Z,22.59
2017-10-14T05:22:14.558Z,22.58
2017-10-14T05:22:54.999Z,22.61
2017-10-14T05:23:35.457Z,22.59
2017-10-14T05:24:15.903Z,22.62
2017-10-14T05:24:56.358Z,22.62
2017-10-14T05:25:36.814Z,22.58
2017-10-14T05:26:17.259Z,22.63
2017-10-14T05:26:57.723Z,22.65
2017-10-14T05:27:38.172Z,22.62
2017-10-14T05:28:18.629Z,22.63
2017-10-14T05:28:59.091Z,22.65
2017-10-14T05:29:39.542Z,22.65
2017-10-14T05:30:19.998Z,22.63
2017-10-14T05:31:00.443Z,22.65
2017-10-14T05:31:40.910Z,22.63
2017-10-14T05:32:21.340Z,22.58
2017-10-14T05:33:01.810Z,22.63
2017-10-14T05:33:42.251Z,22.58
2017-10-14T05:34:22.704Z,22.61
2017-10-14T05:35:03.158Z,22.58
2017-10-14T05:35:43.622Z,22.52
2017-10-14T05:37:22.063Z,22.59
2017-10-14T05:38:02.528Z,22.67
2017-10-14T05:38:42.971Z,22.59
2017-10-14T05:39:23.420Z,22.63
2017-10-14T05:40:03.867Z,22.53
2017-10-14T05:40:44.323Z,22.65
2017-10-14T05:41:24.767Z,22.56
2017-10-14T05:42:05.219Z,22.52
2017-10-14T05:42:45.679Z,22.67
2017-10-14T05:43:26.117Z,22.52
2017-10-14T05:45:03.553Z,22.61
2017-10-14T05:45:44.007Z,22.53
2017-10-14T05:46:24.462Z,22.56
2017-10-14T05:47:04.908Z,22.51
2017-10-14T05:47:45.365Z,22.56
2017-10-14T05:48:25.813Z,22.52
2017-10-14T05:49:06.263Z,22.53
2017-10-14T05:49:46.712Z,22.59
2017-10-14T05:50:27.153Z,22.63
2017-10-14T05:51:07.607Z,22.59
2017-10-14T05:51:48.058Z,22.56
2017-10-14T05:52:28.510Z,22.44
2017-10-14T05:53:08.962Z,22.55
2017-10-14T05:53:49.408Z,22.59
2017-10-14T05:54:29.864Z,22.55
2017-10-14T05:55:10.317Z,22.46
2017-10-14T05:55:50.751Z,22.53
2017-10-14T05:56:31.182Z,22.53
2017-10-14T05:57:11.606Z,22.58
2017-10-14T05:57:52.069Z,22.56
2017-10-14T05:58:32.524Z,22.43
2017-10-14T06:00:46.333Z,22.44
2017-10-14T06:01:26.832Z,22.51
2017-10-14T06:02:07.199Z,22.43
2017-10-14T06:02:47.650Z,22.55
2017-10-14T06:03:28.108Z,22.44
2017-10-14T06:04:08.559Z,22.53
2017-10-14T06:04:49.004Z,22.49
2017-10-14T06:05:30.063Z,22.43
2017-10-14T06:06:10.533Z,22.44
2017-10-14T06:06:51.049Z,22.61
2017-10-14T06:07:31.488Z,22.51
2017-10-14T06:08:11.882Z,22.51
2017-10-14T06:08:52.288Z,22.61
2017-10-14T06:11:05.132Z,22.59
2017-10-14T06:11:45.591Z,22.58
2017-10-14T06:12:26.040Z,22.56
2017-10-14T06:13:06.482Z,22.55
2017-10-14T06:13:46.905Z,22.55
2017-10-14T06:15:24.435Z,22.68
2017-10-14T06:16:05.961Z,22.59
2017-10-14T06:16:46.565Z,22.63
2017-10-14T06:17:26.879Z,22.62
2017-10-14T06:18:07.330Z,22.59
2017-10-14T06:18:47.774Z,22.59
2017-10-14T06:19:28.240Z,22.68
2017-10-14T06:20:08.695Z,22.62
2017-10-14T06:20:49.144Z,22.58
2017-10-14T06:21:29.591Z,22.65
2017-10-14T06:22:10.035Z,22.58
2017-10-14T06:22:50.489Z,22.62
2017-10-14T06:23:30.942Z,22.61
2017-10-14T06:24:11.393Z,22.62
2017-10-14T06:24:51.881Z,22.71
2017-10-14T06:25:32.305Z,22.65
2017-10-14T06:26:12.745Z,22.71
2017-10-14T06:26:53.208Z,22.71
2017-10-14T06:27:33.657Z,22.71
2017-10-14T06:28:14.114Z,22.7
2017-10-14T06:28:54.571Z,22.71
2017-10-14T06:29:35.036Z,22.67
2017-10-14T06:30:15.487Z,22.73
2017-10-14T06:30:55.942Z,22.71
2017-10-14T06:31:36.402Z,22.71
2017-10-14T06:32:16.852Z,22.73
2017-10-14T06:32:57.304Z,22.73
2017-10-14T06:33:37.745Z,22.76
2017-10-14T06:34:18.176Z,22.76
2017-10-14T06:34:58.638Z,22.68
2017-10-14T06:35:39.087Z,22.77
2017-10-14T06:36:19.547Z,22.73
2017-10-14T06:36:59.989Z,22.8
2017-10-14T06:37:40.446Z,22.71
2017-10-14T06:38:20.932Z,22.76
2017-10-14T06:39:01.397Z,22.74
2017-10-14T06:39:41.849Z,22.8
2017-10-14T06:40:22.301Z,22.78
2017-10-14T06:41:02.758Z,22.73
2017-10-14T06:41:43.215Z,22.74
2017-10-14T06:42:23.672Z,22.88
2017-10-14T06:43:04.143Z,22.78
2017-10-14T06:43:44.609Z,22.83
2017-10-14T06:44:25.052Z,22.8
2017-10-14T06:45:05.504Z,22.8
2017-10-14T06:45:45.955Z,22.91
2017-10-14T06:46:26.413Z,22.91
2017-10-14T06:47:06.839Z,22.84
2017-10-14T06:47:47.293Z,22.86
2017-10-14T06:48:27.738Z,22.81
2017-10-14T06:49:08.212Z,22.86
2017-10-14T06:49:48.637Z,22.84
2017-10-14T06:50:29.074Z,22.84
2017-10-14T06:51:09.536Z,22.86
2017-10-14T06:51:50.006Z,22.89
2017-10-14T06:52:30.451Z,22.95
2017-10-14T06:53:10.912Z,22.92
2017-10-14T06:53:51.369Z,22.91
2017-10-14T06:54:31.816Z,22.96
2017-10-14T06:55:12.255Z,22.92
2017-10-14T06:55:52.706Z,22.91
2017-10-14T06:56:33.160Z,22.96
2017-10-14T06:57:13.621Z,22.88
2017-10-14T06:57:54.077Z,22.96
2017-10-14T06:58:34.530Z,22.99
2017-10-14T06:59:15.013Z,23.01
2017-10-14T06:59:55.462Z,22.98
2017-10-14T07:00:35.908Z,23.02
2017-10-14T07:01:16.358Z,22.98
2017-10-14T07:01:56.813Z,22.98
2017-10-14T07:02:37.256Z,22.98
2017-10-14T07:03:17.705Z,23.07
2017-10-14T07:03:58.156Z,22.99
2017-10-14T07:04:38.610Z,22.98
2017-10-14T07:05:19.089Z,23.06
2017-10-14T07:05:59.526Z,23.07
2017-10-14T07:06:39.995Z,22.99
2017-10-14T07:07:20.456Z,23.1
2017-10-14T07:08:00.909Z,23.11
2017-10-14T07:08:41.364Z,23.13
2017-10-14T07:09:21.813Z,23.23
2017-10-14T07:10:02.293Z,23.08
2017-10-14T07:10:42.729Z,23.21
2017-10-14T07:11:23.182Z,23.32
2017-10-14T07:12:03.632Z,23.34
2017-10-14T07:12:44.089Z,23.33
2017-10-14T07:13:24.530Z,23.36
2017-10-14T07:14:04.980Z,23.47
2017-10-14T07:14:45.427Z,23.42
2017-10-14T07:15:25.875Z,23.42
2017-10-14T07:16:06.460Z,23.47
2017-10-14T07:16:46.911Z,23.54
2017-10-14T07:17:27.382Z,23.52
2017-10-14T07:18:07.826Z,23.51
2017-10-14T07:18:49.121Z,23.55
2017-10-14T07:19:29.594Z,23.59
2017-10-14T07:20:10.036Z,23.56
2017-10-14T07:20:50.486Z,23.64
2017-10-14T07:21:30.940Z,23.69
2017-10-14T07:22:11.381Z,23.62
2017-10-14T07:22:51.825Z,23.71
2017-10-14T07:23:32.279Z,23.7
2017-10-14T07:24:12.726Z,23.69
2017-10-14T07:24:53.176Z,23.76
2017-10-14T07:25:33.651Z,23.71
2017-10-14T07:26:14.092Z,23.77
2017-10-14T07:26:54.524Z,23.81
2017-10-14T07:27:34.974Z,23.88
2017-10-14T07:28:15.431Z,23.82
2017-10-14T07:28:55.885Z,23.86
2017-10-14T07:29:36.335Z,23.96
2017-10-14T07:30:16.797Z,23.89
2017-10-14T07:30:57.243Z,23.91
2017-10-14T07:31:37.693Z,23.95
2017-10-14T07:32:18.146Z,23.92
2017-10-14T07:32:58.608Z,23.92
2017-10-14T07:33:39.115Z,23.94
2017-10-14T07:34:19.535Z,24.1
2017-10-14T07:34:59.976Z,24.07
2017-10-14T07:35:40.435Z,24.03
2017-10-14T07:36:21.216Z,24.13
2017-10-14T07:37:01.332Z,24.11
2017-10-14T07:37:41.815Z,24.21
2017-10-14T07:38:22.258Z,24.24
2017-10-14T07:39:03.018Z,24.21
2017-10-14T07:39:43.336Z,24.31
2017-10-14T07:40:23.796Z,24.34
2017-10-14T07:41:04.235Z,24.34
2017-10-14T07:41:44.683Z,24.36
2017-10-14T07:42:25.154Z,24.44
2017-10-14T07:43:05.607Z,24.41
2017-10-14T07:43:46.057Z,24.41
2017-10-14T07:44:26.509Z,24.47
2017-10-14T07:45:06.971Z,24.41
2017-10-14T07:45:47.422Z,24.44
2017-10-14T07:46:27.878Z,24.46
2017-10-14T07:47:08.336Z,24.55
2017-10-14T07:47:48.794Z,24.61
2017-10-14T07:48:29.252Z,24.62
2017-10-14T07:49:09.716Z,24.62
2017-10-14T07:49:50.157Z,24.62
2017-10-14T07:50:30.599Z,24.68
2017-10-14T07:51:11.147Z,24.69
2017-10-14T07:51:51.602Z,24.77
2017-10-14T07:52:32.056Z,24.78
2017-10-14T07:53:12.529Z,24.84
2017-10-14T07:53:52.978Z,24.86
2017-10-14T07:54:33.417Z,24.92
2017-10-14T07:55:13.867Z,24.86
2017-10-14T07:55:54.325Z,24.92
2017-10-14T07:56:34.775Z,25.01
2017-10-14T07:57:15.242Z,24.97
2017-10-14T07:57:55.689Z,24.99
2017-10-14T07:58:36.156Z,25.07
2017-10-14T07:59:16.610Z,25
2017-10-14T07:59:57.075Z,25.04
2017-10-14T08:00:37.522Z,25.11
2017-10-14T08:01:18.209Z,25.07
2017-10-14T08:01:58.983Z,25.15
2017-10-14T08:02:39.439Z,25.14
2017-10-14T08:03:19.904Z,25.19
2017-10-14T08:04:00.358Z,25.22
2017-10-14T08:04:40.816Z,25.22
2017-10-14T08:05:21.274Z,25.25
2017-10-14T08:06:01.723Z,25.37
2017-10-14T08:06:42.175Z,25.36
2017-10-14T08:07:22.636Z,25.34
2017-10-14T08:08:03.091Z,25.4
2017-10-14T08:08:43.544Z,25.36
2017-10-14T08:09:24.016Z,25.46
2017-10-14T08:10:04.449Z,25.51
2017-10-14T08:10:44.916Z,25.54
2017-10-14T08:11:25.366Z,25.46
2017-10-14T08:12:05.821Z,25.55
2017-10-14T08:12:46.273Z,25.58
2017-10-14T08:13:26.724Z,25.58
2017-10-14T08:14:07.180Z,25.56
2017-10-14T08:14:47.633Z,25.67
2017-10-14T08:15:28.097Z,25.63
2017-10-14T08:16:08.544Z,25.59
2017-10-14T08:16:49.001Z,25.67
2017-10-14T08:17:30.390Z,25.66
2017-10-14T08:18:10.860Z,25.73
2017-10-14T08:18:51.307Z,25.7
2017-10-14T08:19:31.744Z,25.76
2017-10-14T08:20:12.198Z,25.8
2017-10-14T08:20:52.647Z,25.83
2017-10-14T08:21:33.105Z,25.81
2017-10-14T08:22:13.559Z,25.92
2017-10-14T08:22:54.013Z,25.88
2017-10-14T08:23:34.471Z,25.91
2017-10-14T08:24:14.909Z,25.96
2017-10-14T08:24:55.363Z,25.96
2017-10-14T08:25:35.817Z,25.88
2017-10-14T08:26:16.261Z,25.95
2017-10-14T08:26:56.718Z,25.98
2017-10-14T08:27:37.179Z,25.99
2017-10-14T08:28:17.633Z,26.04
2017-10-14T08:28:58.091Z,26.03
2017-10-14T08:29:38.539Z,25.95
2017-10-14T08:30:19.015Z,25.98
2017-10-14T08:30:59.468Z,25.99
2017-10-14T08:31:39.918Z,25.99
2017-10-14T08:32:20.753Z,26.03
2017-10-14T08:33:01.481Z,26.15
2017-10-14T08:33:42.038Z,26.13
2017-10-14T08:34:22.495Z,26.18
2017-10-14T08:35:02.994Z,26.16
2017-10-14T08:35:43.446Z,26.11
2017-10-14T08:36:23.922Z,26.15
2017-10-14T08:37:04.970Z,26.15
2017-10-14T08:37:45.595Z,26.26
2017-10-14T08:38:26.372Z,26.29
2017-10-14T08:39:06.934Z,26.23
2017-10-14T08:39:47.398Z,26.29
2017-10-14T08:40:27.862Z,26.37
2017-10-14T08:41:08.307Z,26.3
2017-10-14T08:41:48.778Z,26.3
2017-10-14T08:42:29.227Z,26.33
2017-10-14T08:43:09.693Z,26.29
2017-10-14T08:43:50.149Z,26.33
2017-10-14T08:44:30.604Z,26.31
2017-10-14T08:45:11.076Z,26.36
2017-10-14T08:45:51.540Z,26.37
2017-10-14T08:46:32.003Z,26.36
2017-10-14T08:47:12.467Z,26.37
2017-10-14T08:47:52.938Z,26.45
2017-10-14T08:48:33.399Z,26.37
2017-10-14T08:49:13.857Z,26.45
2017-10-14T08:49:54.311Z,26.48
2017-10-14T08:50:34.776Z,26.45
2017-10-14T08:51:15.241Z,26.51
2017-10-14T08:51:55.705Z,26.56
2017-10-14T08:52:36.169Z,26.51
2017-10-14T08:53:16.633Z,26.48
2017-10-14T08:53:57.096Z,26.51
2017-10-14T08:54:37.566Z,26.56
2017-10-14T08:55:18.013Z,26.66
2017-10-14T08:57:35.822Z,26.56